sensor_id;sensor_type;location;lat;lon;timestamp;P1;durP1;ratioP1;P2;durP2;ratioP2
77226;SDS011;66234;47.642;19.144;2023-08-12T00:03:01;6.55;;;4.47;;
77226;SDS011;66234;47.642;19.144;2023-08-12T00:06:04;7.10;;;4.43;;
77226;SDS011;66234;47.642;19.144;2023-08-12T00:09:07;6.18;;;4.47;;
77226;SDS011;66234;47.642;19.144;2023-08-12T00:12:10;6.93;;;4.53;;
77226;SDS011;66234;47.642;19.144;2023-08-12T00:15:13;5.15;;;3.90;;
77226;SDS011;66234;47.642;19.144;2023-08-12T00:18:16;6.15;;;4.70;;
77226;SDS011;66234;47.642;19.144;2023-08-12T00:21:19;6.75;;;4.15;;
77226;SDS011;66234;47.642;19.144;2023-08-12T00:24:22;5.55;;;4.32;;
77226;SDS011;66234;47.642;19.144;2023-08-12T00:27:24;5.47;;;4.40;;
77226;SDS011;66234;47.642;19.144;2023-08-12T00:30:27;5.72;;;4.10;;
77226;SDS011;66234;47.642;19.144;2023-08-12T00:33:30;6.45;;;4.43;;
77226;SDS011;66234;47.642;19.144;2023-08-12T00:36:33;5.57;;;4.35;;
77226;SDS011;66234;47.642;19.144;2023-08-12T00:39:36;7.10;;;4.47;;
77226;SDS011;66234;47.642;19.144;2023-08-12T00:42:38;9.63;;;4.20;;
77226;SDS011;66234;47.642;19.144;2023-08-12T00:45:41;6.40;;;4.57;;
77226;SDS011;66234;47.642;19.144;2023-08-12T00:48:45;5.63;;;4.82;;
77226;SDS011;66234;47.642;19.144;2023-08-12T00:51:49;7.47;;;5.43;;
77226;SDS011;66234;47.642;19.144;2023-08-12T00:54:53;8.00;;;5.30;;
77226;SDS011;66234;47.642;19.144;2023-08-12T00:57:55;8.03;;;5.10;;
77226;SDS011;66234;47.642;19.144;2023-08-12T01:00:58;6.03;;;4.70;;
77226;SDS011;66234;47.642;19.144;2023-08-12T01:04:01;10.15;;;5.20;;
77226;SDS011;66234;47.642;19.144;2023-08-12T01:07:04;10.45;;;4.57;;
77226;SDS011;66234;47.642;19.144;2023-08-12T01:10:09;7.88;;;4.80;;
77226;SDS011;66234;47.642;19.144;2023-08-12T01:13:24;12.63;;;5.07;;
77226;SDS011;66234;47.642;19.144;2023-08-12T01:16:38;8.95;;;4.60;;
77226;SDS011;66234;47.642;19.144;2023-08-12T01:19:44;6.00;;;4.88;;
77226;SDS011;66234;47.642;19.144;2023-08-12T01:22:52;8.88;;;4.30;;
77226;SDS011;66234;47.642;19.144;2023-08-12T01:25:59;5.35;;;4.18;;
77226;SDS011;66234;47.642;19.144;2023-08-12T01:29:02;5.10;;;4.10;;
77226;SDS011;66234;47.642;19.144;2023-08-12T01:35:15;5.18;;;3.83;;
77226;SDS011;66234;47.642;19.144;2023-08-12T01:38:21;6.40;;;3.88;;
77226;SDS011;66234;47.642;19.144;2023-08-12T01:41:29;8.02;;;4.30;;
77226;SDS011;66234;47.642;19.144;2023-08-12T01:44:32;6.87;;;3.97;;
77226;SDS011;66234;47.642;19.144;2023-08-12T01:47:34;7.70;;;4.10;;
77226;SDS011;66234;47.642;19.144;2023-08-12T01:50:37;7.30;;;5.28;;
77226;SDS011;66234;47.642;19.144;2023-08-12T01:53:39;8.73;;;4.40;;
77226;SDS011;66234;47.642;19.144;2023-08-12T01:56:42;6.03;;;4.07;;
77226;SDS011;66234;47.642;19.144;2023-08-12T01:59:44;8.27;;;4.37;;
77226;SDS011;66234;47.642;19.144;2023-08-12T02:02:47;7.00;;;4.68;;
77226;SDS011;66234;47.642;19.144;2023-08-12T02:05:50;4.57;;;3.88;;
77226;SDS011;66234;47.642;19.144;2023-08-12T02:08:52;5.65;;;4.00;;
77226;SDS011;66234;47.642;19.144;2023-08-12T02:11:55;6.40;;;4.55;;
77226;SDS011;66234;47.642;19.144;2023-08-12T02:14:57;6.30;;;4.20;;
77226;SDS011;66234;47.642;19.144;2023-08-12T02:18:00;6.00;;;4.07;;
77226;SDS011;66234;47.642;19.144;2023-08-12T02:21:03;6.38;;;4.13;;
77226;SDS011;66234;47.642;19.144;2023-08-12T02:24:05;5.40;;;4.30;;
77226;SDS011;66234;47.642;19.144;2023-08-12T02:27:08;5.60;;;4.22;;
77226;SDS011;66234;47.642;19.144;2023-08-12T02:30:11;5.23;;;3.73;;
77226;SDS011;66234;47.642;19.144;2023-08-12T02:33:14;6.22;;;4.35;;
77226;SDS011;66234;47.642;19.144;2023-08-12T02:36:17;7.93;;;4.53;;
77226;SDS011;66234;47.642;19.144;2023-08-12T02:39:19;6.25;;;4.57;;
77226;SDS011;66234;47.642;19.144;2023-08-12T02:42:22;5.22;;;4.72;;
77226;SDS011;66234;47.642;19.144;2023-08-12T02:45:24;6.27;;;4.37;;
77226;SDS011;66234;47.642;19.144;2023-08-12T02:48:27;5.93;;;4.50;;
77226;SDS011;66234;47.642;19.144;2023-08-12T02:51:29;4.80;;;4.25;;
77226;SDS011;66234;47.642;19.144;2023-08-12T02:54:32;7.15;;;4.60;;
77226;SDS011;66234;47.642;19.144;2023-08-12T02:57:34;5.53;;;4.40;;
77226;SDS011;66234;47.642;19.144;2023-08-12T03:00:40;8.20;;;4.43;;
77226;SDS011;66234;47.642;19.144;2023-08-12T03:03:44;6.43;;;4.57;;
77226;SDS011;66234;47.642;19.144;2023-08-12T03:06:47;8.60;;;5.05;;
77226;SDS011;66234;47.642;19.144;2023-08-12T03:09:50;6.80;;;4.22;;
77226;SDS011;66234;47.642;19.144;2023-08-12T03:12:52;6.13;;;4.22;;
77226;SDS011;66234;47.642;19.144;2023-08-12T03:15:56;7.10;;;4.50;;
77226;SDS011;66234;47.642;19.144;2023-08-12T03:19:00;7.07;;;4.85;;
77226;SDS011;66234;47.642;19.144;2023-08-12T03:22:03;7.35;;;4.78;;
77226;SDS011;66234;47.642;19.144;2023-08-12T03:25:06;7.38;;;4.85;;
77226;SDS011;66234;47.642;19.144;2023-08-12T03:28:09;6.07;;;4.85;;
77226;SDS011;66234;47.642;19.144;2023-08-12T03:31:12;8.47;;;4.77;;
77226;SDS011;66234;47.642;19.144;2023-08-12T03:34:15;6.80;;;5.13;;
77226;SDS011;66234;47.642;19.144;2023-08-12T03:37:18;8.85;;;4.78;;
77226;SDS011;66234;47.642;19.144;2023-08-12T03:40:23;6.47;;;4.80;;
77226;SDS011;66234;47.642;19.144;2023-08-12T03:43:26;7.97;;;4.95;;
77226;SDS011;66234;47.642;19.144;2023-08-12T03:46:29;6.30;;;4.77;;
77226;SDS011;66234;47.642;19.144;2023-08-12T03:49:31;5.72;;;4.95;;
77226;SDS011;66234;47.642;19.144;2023-08-12T03:52:34;6.78;;;4.70;;
77226;SDS011;66234;47.642;19.144;2023-08-12T03:55:36;9.30;;;5.15;;
77226;SDS011;66234;47.642;19.144;2023-08-12T03:58:39;8.23;;;4.85;;
77226;SDS011;66234;47.642;19.144;2023-08-12T04:01:42;5.70;;;4.47;;
77226;SDS011;66234;47.642;19.144;2023-08-12T04:04:45;10.30;;;5.38;;
77226;SDS011;66234;47.642;19.144;2023-08-12T04:07:47;5.88;;;4.82;;
77226;SDS011;66234;47.642;19.144;2023-08-12T04:10:51;5.80;;;4.28;;
77226;SDS011;66234;47.642;19.144;2023-08-12T04:13:54;5.72;;;4.38;;
77226;SDS011;66234;47.642;19.144;2023-08-12T04:16:56;9.33;;;5.27;;
77226;SDS011;66234;47.642;19.144;2023-08-12T04:19:59;4.88;;;4.05;;
77226;SDS011;66234;47.642;19.144;2023-08-12T04:23:01;5.88;;;4.85;;
77226;SDS011;66234;47.642;19.144;2023-08-12T04:26:05;5.38;;;4.50;;
77226;SDS011;66234;47.642;19.144;2023-08-12T04:29:08;5.28;;;4.18;;
77226;SDS011;66234;47.642;19.144;2023-08-12T04:32:13;6.90;;;4.43;;
77226;SDS011;66234;47.642;19.144;2023-08-12T04:35:16;6.38;;;3.78;;
77226;SDS011;66234;47.642;19.144;2023-08-12T04:38:19;7.05;;;4.40;;
77226;SDS011;66234;47.642;19.144;2023-08-12T04:41:24;4.93;;;3.95;;
77226;SDS011;66234;47.642;19.144;2023-08-12T04:44:28;6.57;;;4.18;;
77226;SDS011;66234;47.642;19.144;2023-08-12T04:47:31;5.47;;;3.67;;
77226;SDS011;66234;47.642;19.144;2023-08-12T04:50:34;6.13;;;4.43;;
77226;SDS011;66234;47.642;19.144;2023-08-12T04:53:37;5.68;;;3.65;;
77226;SDS011;66234;47.642;19.144;2023-08-12T04:56:41;6.40;;;4.45;;
77226;SDS011;66234;47.642;19.144;2023-08-12T04:59:43;7.88;;;3.58;;
77226;SDS011;66234;47.642;19.144;2023-08-12T05:02:46;3.97;;;3.20;;
77226;SDS011;66234;47.642;19.144;2023-08-12T05:05:50;6.63;;;3.22;;
77226;SDS011;66234;47.642;19.144;2023-08-12T05:08:56;3.58;;;2.83;;
77226;SDS011;66234;47.642;19.144;2023-08-12T05:11:59;3.72;;;3.17;;
77226;SDS011;66234;47.642;19.144;2023-08-12T05:15:03;4.68;;;3.47;;
77226;SDS011;66234;47.642;19.144;2023-08-12T05:18:06;4.87;;;3.30;;
77226;SDS011;66234;47.642;19.144;2023-08-12T05:21:09;3.88;;;2.92;;
77226;SDS011;66234;47.642;19.144;2023-08-12T05:24:12;5.97;;;3.45;;
77226;SDS011;66234;47.642;19.144;2023-08-12T05:27:14;5.50;;;3.40;;
77226;SDS011;66234;47.642;19.144;2023-08-12T05:30:17;5.13;;;3.72;;
77226;SDS011;66234;47.642;19.144;2023-08-12T05:33:20;3.93;;;3.40;;
77226;SDS011;66234;47.642;19.144;2023-08-12T05:36:22;9.23;;;3.45;;
77226;SDS011;66234;47.642;19.144;2023-08-12T05:39:25;5.47;;;3.30;;
77226;SDS011;66234;47.642;19.144;2023-08-12T05:42:27;7.50;;;3.63;;
77226;SDS011;66234;47.642;19.144;2023-08-12T05:45:30;4.63;;;3.90;;
77226;SDS011;66234;47.642;19.144;2023-08-12T05:48:32;7.20;;;3.13;;
77226;SDS011;66234;47.642;19.144;2023-08-12T05:51:35;7.32;;;3.40;;
77226;SDS011;66234;47.642;19.144;2023-08-12T05:54:37;5.28;;;3.60;;
77226;SDS011;66234;47.642;19.144;2023-08-12T05:57:40;4.72;;;3.25;;
77226;SDS011;66234;47.642;19.144;2023-08-12T06:00:42;5.22;;;3.65;;
77226;SDS011;66234;47.642;19.144;2023-08-12T06:03:47;5.90;;;3.93;;
77226;SDS011;66234;47.642;19.144;2023-08-12T06:06:50;5.63;;;3.28;;
77226;SDS011;66234;47.642;19.144;2023-08-12T06:09:52;3.58;;;3.25;;
77226;SDS011;66234;47.642;19.144;2023-08-12T06:12:55;4.97;;;3.20;;
77226;SDS011;66234;47.642;19.144;2023-08-12T06:15:58;4.53;;;3.25;;
77226;SDS011;66234;47.642;19.144;2023-08-12T06:19:01;4.20;;;3.17;;
77226;SDS011;66234;47.642;19.144;2023-08-12T06:22:03;3.55;;;3.00;;
77226;SDS011;66234;47.642;19.144;2023-08-12T06:25:06;5.60;;;3.60;;
77226;SDS011;66234;47.642;19.144;2023-08-12T06:28:09;5.85;;;3.53;;
77226;SDS011;66234;47.642;19.144;2023-08-12T06:31:12;3.50;;;3.20;;
77226;SDS011;66234;47.642;19.144;2023-08-12T06:34:14;2.93;;;2.63;;
77226;SDS011;66234;47.642;19.144;2023-08-12T06:37:17;4.38;;;3.08;;
77226;SDS011;66234;47.642;19.144;2023-08-12T06:40:19;4.18;;;2.80;;
77226;SDS011;66234;47.642;19.144;2023-08-12T06:43:22;6.47;;;3.20;;
77226;SDS011;66234;47.642;19.144;2023-08-12T06:46:25;3.25;;;2.95;;
77226;SDS011;66234;47.642;19.144;2023-08-12T06:49:27;3.87;;;2.93;;
77226;SDS011;66234;47.642;19.144;2023-08-12T06:52:30;4.07;;;2.90;;
77226;SDS011;66234;47.642;19.144;2023-08-12T06:55:32;3.53;;;2.78;;
77226;SDS011;66234;47.642;19.144;2023-08-12T06:58:35;4.07;;;2.97;;
77226;SDS011;66234;47.642;19.144;2023-08-12T07:01:37;4.35;;;3.20;;
77226;SDS011;66234;47.642;19.144;2023-08-12T07:04:40;4.90;;;2.93;;
77226;SDS011;66234;47.642;19.144;2023-08-12T07:07:43;5.22;;;3.25;;
77226;SDS011;66234;47.642;19.144;2023-08-12T07:10:45;5.85;;;3.03;;
77226;SDS011;66234;47.642;19.144;2023-08-12T07:13:48;3.42;;;2.67;;
77226;SDS011;66234;47.642;19.144;2023-08-12T07:16:50;3.42;;;2.90;;
77226;SDS011;66234;47.642;19.144;2023-08-12T07:19:53;4.73;;;3.27;;
77226;SDS011;66234;47.642;19.144;2023-08-12T07:22:55;4.28;;;3.30;;
77226;SDS011;66234;47.642;19.144;2023-08-12T07:25:58;7.32;;;2.83;;
77226;SDS011;66234;47.642;19.144;2023-08-12T07:29:00;3.72;;;3.15;;
77226;SDS011;66234;47.642;19.144;2023-08-12T07:32:04;4.32;;;2.70;;
77226;SDS011;66234;47.642;19.144;2023-08-12T07:35:07;4.60;;;3.10;;
77226;SDS011;66234;47.642;19.144;2023-08-12T07:38:10;3.28;;;2.80;;
77226;SDS011;66234;47.642;19.144;2023-08-12T07:41:13;4.30;;;2.83;;
77226;SDS011;66234;47.642;19.144;2023-08-12T07:44:15;4.78;;;2.80;;
77226;SDS011;66234;47.642;19.144;2023-08-12T07:47:18;3.75;;;3.20;;
77226;SDS011;66234;47.642;19.144;2023-08-12T07:50:21;3.53;;;2.70;;
77226;SDS011;66234;47.642;19.144;2023-08-12T07:53:24;3.17;;;2.60;;
77226;SDS011;66234;47.642;19.144;2023-08-12T07:56:26;3.67;;;2.90;;
77226;SDS011;66234;47.642;19.144;2023-08-12T07:59:29;3.38;;;2.97;;
77226;SDS011;66234;47.642;19.144;2023-08-12T08:02:31;4.63;;;3.20;;
77226;SDS011;66234;47.642;19.144;2023-08-12T08:05:34;3.30;;;2.90;;
77226;SDS011;66234;47.642;19.144;2023-08-12T08:08:37;4.82;;;2.92;;
77226;SDS011;66234;47.642;19.144;2023-08-12T08:11:39;3.55;;;2.95;;
77226;SDS011;66234;47.642;19.144;2023-08-12T08:14:42;5.00;;;2.70;;
77226;SDS011;66234;47.642;19.144;2023-08-12T08:17:45;3.53;;;2.85;;
77226;SDS011;66234;47.642;19.144;2023-08-12T08:20:47;3.40;;;3.10;;
77226;SDS011;66234;47.642;19.144;2023-08-12T08:23:50;3.05;;;2.75;;
77226;SDS011;66234;47.642;19.144;2023-08-12T08:26:52;3.60;;;3.30;;
77226;SDS011;66234;47.642;19.144;2023-08-12T08:29:55;4.63;;;2.78;;
77226;SDS011;66234;47.642;19.144;2023-08-12T08:32:57;4.13;;;2.63;;
77226;SDS011;66234;47.642;19.144;2023-08-12T08:36:00;4.70;;;2.80;;
77226;SDS011;66234;47.642;19.144;2023-08-12T08:39:03;6.93;;;3.03;;
77226;SDS011;66234;47.642;19.144;2023-08-12T08:42:05;3.60;;;3.00;;
77226;SDS011;66234;47.642;19.144;2023-08-12T08:45:12;3.15;;;2.85;;
77226;SDS011;66234;47.642;19.144;2023-08-12T08:48:15;3.30;;;3.00;;
77226;SDS011;66234;47.642;19.144;2023-08-12T08:51:19;4.30;;;2.93;;
77226;SDS011;66234;47.642;19.144;2023-08-12T08:54:22;4.55;;;2.95;;
77226;SDS011;66234;47.642;19.144;2023-08-12T08:57:25;4.10;;;3.13;;
77226;SDS011;66234;47.642;19.144;2023-08-12T09:00:49;3.10;;;2.65;;
77226;SDS011;66234;47.642;19.144;2023-08-12T09:03:52;3.67;;;2.90;;
77226;SDS011;66234;47.642;19.144;2023-08-12T09:06:55;3.30;;;2.90;;
77226;SDS011;66234;47.642;19.144;2023-08-12T09:09:58;6.63;;;3.25;;
77226;SDS011;66234;47.642;19.144;2023-08-12T09:13:03;3.55;;;3.25;;
77226;SDS011;66234;47.642;19.144;2023-08-12T09:16:06;3.47;;;2.60;;
77226;SDS011;66234;47.642;19.144;2023-08-12T09:19:08;4.05;;;3.00;;
77226;SDS011;66234;47.642;19.144;2023-08-12T09:22:11;3.03;;;2.70;;
77226;SDS011;66234;47.642;19.144;2023-08-12T09:25:14;3.78;;;3.20;;
77226;SDS011;66234;47.642;19.144;2023-08-12T09:28:17;5.30;;;2.80;;
77226;SDS011;66234;47.642;19.144;2023-08-12T09:31:29;4.30;;;2.72;;
77226;SDS011;66234;47.642;19.144;2023-08-12T09:34:33;4.15;;;2.85;;
77226;SDS011;66234;47.642;19.144;2023-08-12T09:37:35;2.93;;;2.63;;
77226;SDS011;66234;47.642;19.144;2023-08-12T09:40:38;5.55;;;2.80;;
77226;SDS011;66234;47.642;19.144;2023-08-12T09:43:44;5.15;;;2.95;;
77226;SDS011;66234;47.642;19.144;2023-08-12T09:46:46;3.03;;;2.50;;
77226;SDS011;66234;47.642;19.144;2023-08-12T09:49:49;3.35;;;2.67;;
77226;SDS011;66234;47.642;19.144;2023-08-12T09:52:52;2.87;;;2.60;;
77226;SDS011;66234;47.642;19.144;2023-08-12T09:55:56;2.80;;;2.60;;
77226;SDS011;66234;47.642;19.144;2023-08-12T09:59:08;2.83;;;2.60;;
77226;SDS011;66234;47.642;19.144;2023-08-12T10:02:12;2.90;;;2.65;;
77226;SDS011;66234;47.642;19.144;2023-08-12T10:08:29;2.83;;;2.57;;
77226;SDS011;66234;47.642;19.144;2023-08-12T10:11:31;3.17;;;2.35;;
77226;SDS011;66234;47.642;19.144;2023-08-12T10:14:34;2.47;;;2.28;;
77226;SDS011;66234;47.642;19.144;2023-08-12T10:17:38;2.72;;;2.47;;
77226;SDS011;66234;47.642;19.144;2023-08-12T10:20:45;2.97;;;2.63;;
77226;SDS011;66234;47.642;19.144;2023-08-12T10:23:49;3.00;;;2.70;;
77226;SDS011;66234;47.642;19.144;2023-08-12T10:26:52;3.40;;;2.50;;
77226;SDS011;66234;47.642;19.144;2023-08-12T10:29:56;2.63;;;2.42;;
77226;SDS011;66234;47.642;19.144;2023-08-12T10:32:59;5.63;;;2.65;;
77226;SDS011;66234;47.642;19.144;2023-08-12T10:36:02;3.72;;;2.78;;
77226;SDS011;66234;47.642;19.144;2023-08-12T10:39:07;3.17;;;2.80;;
77226;SDS011;66234;47.642;19.144;2023-08-12T10:42:12;3.10;;;2.30;;
77226;SDS011;66234;47.642;19.144;2023-08-12T10:45:15;3.15;;;2.85;;
77226;SDS011;66234;47.642;19.144;2023-08-12T10:48:23;7.53;;;2.95;;
77226;SDS011;66234;47.642;19.144;2023-08-12T10:51:39;2.72;;;2.53;;
77226;SDS011;66234;47.642;19.144;2023-08-12T10:54:49;3.00;;;2.60;;
77226;SDS011;66234;47.642;19.144;2023-08-12T10:57:53;2.63;;;2.42;;
77226;SDS011;66234;47.642;19.144;2023-08-12T11:00:58;4.45;;;2.83;;
77226;SDS011;66234;47.642;19.144;2023-08-12T11:04:01;4.55;;;2.88;;
77226;SDS011;66234;47.642;19.144;2023-08-12T11:07:18;2.67;;;2.47;;
77226;SDS011;66234;47.642;19.144;2023-08-12T11:10:22;3.03;;;2.83;;
77226;SDS011;66234;47.642;19.144;2023-08-12T11:13:32;3.08;;;2.30;;
77226;SDS011;66234;47.642;19.144;2023-08-12T11:16:35;3.05;;;2.75;;
77226;SDS011;66234;47.642;19.144;2023-08-12T11:19:39;3.70;;;2.60;;
77226;SDS011;66234;47.642;19.144;2023-08-12T11:22:43;2.47;;;2.28;;
77226;SDS011;66234;47.642;19.144;2023-08-12T11:25:46;4.97;;;2.87;;
77226;SDS011;66234;47.642;19.144;2023-08-12T11:28:53;3.30;;;2.25;;
77226;SDS011;66234;47.642;19.144;2023-08-12T11:31:55;7.75;;;2.45;;
77226;SDS011;66234;47.642;19.144;2023-08-12T11:34:58;2.95;;;2.30;;
77226;SDS011;66234;47.642;19.144;2023-08-12T11:38:01;2.88;;;2.40;;
77226;SDS011;66234;47.642;19.144;2023-08-12T11:41:03;2.80;;;2.60;;
77226;SDS011;66234;47.642;19.144;2023-08-12T11:44:06;2.67;;;2.28;;
77226;SDS011;66234;47.642;19.144;2023-08-12T11:47:14;4.22;;;2.88;;
77226;SDS011;66234;47.642;19.144;2023-08-12T11:50:16;2.92;;;2.63;;
77226;SDS011;66234;47.642;19.144;2023-08-12T11:53:19;3.00;;;2.70;;
77226;SDS011;66234;47.642;19.144;2023-08-12T11:56:22;2.60;;;2.40;;
77226;SDS011;66234;47.642;19.144;2023-08-12T11:59:25;2.83;;;2.53;;
77226;SDS011;66234;47.642;19.144;2023-08-12T12:02:28;3.38;;;3.05;;
77226;SDS011;66234;47.642;19.144;2023-08-12T12:05:31;5.00;;;2.65;;
77226;SDS011;66234;47.642;19.144;2023-08-12T12:08:33;3.40;;;2.63;;
77226;SDS011;66234;47.642;19.144;2023-08-12T12:11:36;2.47;;;2.27;;
77226;SDS011;66234;47.642;19.144;2023-08-12T12:14:39;4.15;;;2.90;;
77226;SDS011;66234;47.642;19.144;2023-08-12T12:17:42;3.20;;;2.65;;
77226;SDS011;66234;47.642;19.144;2023-08-12T12:20:57;3.28;;;2.60;;
77226;SDS011;66234;47.642;19.144;2023-08-12T12:24:01;3.30;;;3.00;;
77226;SDS011;66234;47.642;19.144;2023-08-12T12:27:04;3.30;;;3.00;;
77226;SDS011;66234;47.642;19.144;2023-08-12T12:30:07;3.70;;;2.80;;
77226;SDS011;66234;47.642;19.144;2023-08-12T12:33:14;4.65;;;3.17;;
77226;SDS011;66234;47.642;19.144;2023-08-12T12:36:16;4.00;;;2.88;;
77226;SDS011;66234;47.642;19.144;2023-08-12T12:39:19;3.92;;;3.40;;
77226;SDS011;66234;47.642;19.144;2023-08-12T12:42:22;3.70;;;3.40;;
77226;SDS011;66234;47.642;19.144;2023-08-12T12:45:24;4.03;;;3.63;;
77226;SDS011;66234;47.642;19.144;2023-08-12T12:48:27;3.38;;;3.08;;
77226;SDS011;66234;47.642;19.144;2023-08-12T12:51:29;3.60;;;3.30;;
77226;SDS011;66234;47.642;19.144;2023-08-12T12:54:32;3.83;;;3.53;;
77226;SDS011;66234;47.642;19.144;2023-08-12T12:57:35;3.80;;;3.50;;
77226;SDS011;66234;47.642;19.144;2023-08-12T13:00:37;4.35;;;3.95;;
77226;SDS011;66234;47.642;19.144;2023-08-12T13:03:40;3.67;;;3.38;;
77226;SDS011;66234;47.642;19.144;2023-08-12T13:06:43;4.07;;;3.75;;
77226;SDS011;66234;47.642;19.144;2023-08-12T13:09:46;3.30;;;3.10;;
77226;SDS011;66234;47.642;19.144;2023-08-12T13:12:48;3.77;;;3.40;;
77226;SDS011;66234;47.642;19.144;2023-08-12T13:15:51;3.30;;;3.00;;
77226;SDS011;66234;47.642;19.144;2023-08-12T13:18:54;8.13;;;3.30;;
77226;SDS011;66234;47.642;19.144;2023-08-12T13:21:58;3.70;;;3.50;;
77226;SDS011;66234;47.642;19.144;2023-08-12T13:25:02;3.75;;;3.45;;
77226;SDS011;66234;47.642;19.144;2023-08-12T13:28:05;4.07;;;3.77;;
77226;SDS011;66234;47.642;19.144;2023-08-12T13:31:08;3.78;;;3.45;;
77226;SDS011;66234;47.642;19.144;2023-08-12T13:34:11;3.53;;;3.30;;
77226;SDS011;66234;47.642;19.144;2023-08-12T13:37:13;3.50;;;3.28;;
77226;SDS011;66234;47.642;19.144;2023-08-12T13:40:17;3.42;;;3.22;;
77226;SDS011;66234;47.642;19.144;2023-08-12T13:43:19;3.37;;;3.17;;
77226;SDS011;66234;47.642;19.144;2023-08-12T13:46:22;3.83;;;3.50;;
77226;SDS011;66234;47.642;19.144;2023-08-12T13:49:24;3.70;;;3.50;;
77226;SDS011;66234;47.642;19.144;2023-08-12T13:52:27;3.75;;;3.45;;
77226;SDS011;66234;47.642;19.144;2023-08-12T13:55:30;3.85;;;3.60;;
77226;SDS011;66234;47.642;19.144;2023-08-12T13:58:32;3.90;;;3.70;;
77226;SDS011;66234;47.642;19.144;2023-08-12T14:01:35;4.20;;;3.90;;
77226;SDS011;66234;47.642;19.144;2023-08-12T14:04:37;4.20;;;3.90;;
77226;SDS011;66234;47.642;19.144;2023-08-12T14:07:40;4.05;;;3.75;;
77226;SDS011;66234;47.642;19.144;2023-08-12T14:10:45;3.85;;;3.60;;
77226;SDS011;66234;47.642;19.144;2023-08-12T14:13:48;4.00;;;3.70;;
77226;SDS011;66234;47.642;19.144;2023-08-12T14:16:50;4.10;;;3.80;;
77226;SDS011;66234;47.642;19.144;2023-08-12T14:19:53;5.53;;;4.00;;
77226;SDS011;66234;47.642;19.144;2023-08-12T14:22:56;4.15;;;3.83;;
77226;SDS011;66234;47.642;19.144;2023-08-12T14:25:59;4.50;;;3.63;;
77226;SDS011;66234;47.642;19.144;2023-08-12T14:29:03;3.97;;;3.57;;
77226;SDS011;66234;47.642;19.144;2023-08-12T14:32:06;4.40;;;4.00;;
77226;SDS011;66234;47.642;19.144;2023-08-12T14:35:08;3.85;;;3.65;;
77226;SDS011;66234;47.642;19.144;2023-08-12T14:38:11;5.35;;;3.95;;
77226;SDS011;66234;47.642;19.144;2023-08-12T14:41:15;4.15;;;3.88;;
77226;SDS011;66234;47.642;19.144;2023-08-12T14:44:17;4.10;;;3.80;;
77226;SDS011;66234;47.642;19.144;2023-08-12T14:47:20;4.35;;;3.95;;
77226;SDS011;66234;47.642;19.144;2023-08-12T14:50:22;4.20;;;3.85;;
77226;SDS011;66234;47.642;19.144;2023-08-12T14:53:25;4.20;;;3.90;;
77226;SDS011;66234;47.642;19.144;2023-08-12T14:56:27;4.30;;;3.97;;
77226;SDS011;66234;47.642;19.144;2023-08-12T14:59:30;4.50;;;4.20;;
77226;SDS011;66234;47.642;19.144;2023-08-12T15:02:33;4.20;;;3.80;;
77226;SDS011;66234;47.642;19.144;2023-08-12T15:05:35;4.30;;;3.90;;
77226;SDS011;66234;47.642;19.144;2023-08-12T15:08:38;4.30;;;3.83;;
77226;SDS011;66234;47.642;19.144;2023-08-12T15:11:40;4.28;;;3.88;;
77226;SDS011;66234;47.642;19.144;2023-08-12T15:14:43;4.10;;;3.70;;
77226;SDS011;66234;47.642;19.144;2023-08-12T15:17:45;4.28;;;3.72;;
77226;SDS011;66234;47.642;19.144;2023-08-12T15:20:48;4.13;;;3.83;;
77226;SDS011;66234;47.642;19.144;2023-08-12T15:23:51;3.88;;;3.67;;
77226;SDS011;66234;47.642;19.144;2023-08-12T15:26:54;4.45;;;3.92;;
77226;SDS011;66234;47.642;19.144;2023-08-12T15:29:56;3.90;;;3.70;;
77226;SDS011;66234;47.642;19.144;2023-08-12T15:32:59;4.15;;;3.75;;
77226;SDS011;66234;47.642;19.144;2023-08-12T15:36:03;6.07;;;3.50;;
77226;SDS011;66234;47.642;19.144;2023-08-12T15:39:05;3.50;;;3.20;;
77226;SDS011;66234;47.642;19.144;2023-08-12T15:42:10;4.10;;;3.80;;
77226;SDS011;66234;47.642;19.144;2023-08-12T15:45:12;4.93;;;3.63;;
77226;SDS011;66234;47.642;19.144;2023-08-12T15:48:15;3.83;;;3.63;;
77226;SDS011;66234;47.642;19.144;2023-08-12T15:51:17;4.03;;;3.70;;
77226;SDS011;66234;47.642;19.144;2023-08-12T15:54:20;4.00;;;3.70;;
77226;SDS011;66234;47.642;19.144;2023-08-12T15:57:23;4.00;;;3.70;;
77226;SDS011;66234;47.642;19.144;2023-08-12T16:00:25;4.20;;;3.80;;
77226;SDS011;66234;47.642;19.144;2023-08-12T16:03:28;3.75;;;3.45;;
77226;SDS011;66234;47.642;19.144;2023-08-12T16:06:31;3.65;;;3.38;;
77226;SDS011;66234;47.642;19.144;2023-08-12T16:09:34;4.10;;;3.80;;
77226;SDS011;66234;47.642;19.144;2023-08-12T16:12:36;3.95;;;3.75;;
77226;SDS011;66234;47.642;19.144;2023-08-12T16:15:39;3.60;;;3.30;;
77226;SDS011;66234;47.642;19.144;2023-08-12T16:18:42;3.80;;;3.50;;
77226;SDS011;66234;47.642;19.144;2023-08-12T16:21:45;4.20;;;3.90;;
77226;SDS011;66234;47.642;19.144;2023-08-12T16:24:48;4.05;;;3.75;;
77226;SDS011;66234;47.642;19.144;2023-08-12T16:27:50;3.67;;;3.45;;
77226;SDS011;66234;47.642;19.144;2023-08-12T16:30:53;5.57;;;3.63;;
77226;SDS011;66234;47.642;19.144;2023-08-12T16:33:55;3.58;;;3.38;;
77226;SDS011;66234;47.642;19.144;2023-08-12T16:36:58;3.90;;;3.60;;
77226;SDS011;66234;47.642;19.144;2023-08-12T16:40:21;3.78;;;3.40;;
77226;SDS011;66234;47.642;19.144;2023-08-12T16:43:24;4.10;;;3.80;;
77226;SDS011;66234;47.642;19.144;2023-08-12T16:46:26;3.60;;;3.30;;
77226;SDS011;66234;47.642;19.144;2023-08-12T16:49:29;3.60;;;3.28;;
77226;SDS011;66234;47.642;19.144;2023-08-12T16:52:31;3.30;;;3.10;;
77226;SDS011;66234;47.642;19.144;2023-08-12T16:55:34;3.40;;;3.10;;
77226;SDS011;66234;47.642;19.144;2023-08-12T16:58:37;4.00;;;3.40;;
77226;SDS011;66234;47.642;19.144;2023-08-12T17:01:41;3.67;;;2.83;;
77226;SDS011;66234;47.642;19.144;2023-08-12T17:04:44;3.58;;;2.78;;
77226;SDS011;66234;47.642;19.144;2023-08-12T17:07:46;3.50;;;3.20;;
77226;SDS011;66234;47.642;19.144;2023-08-12T17:10:49;2.75;;;2.50;;
77226;SDS011;66234;47.642;19.144;2023-08-12T17:13:51;3.30;;;3.00;;
77226;SDS011;66234;47.642;19.144;2023-08-12T17:16:54;5.93;;;2.83;;
77226;SDS011;66234;47.642;19.144;2023-08-12T17:19:57;3.08;;;2.78;;
77226;SDS011;66234;47.642;19.144;2023-08-12T17:22:59;5.15;;;3.10;;
77226;SDS011;66234;47.642;19.144;2023-08-12T17:26:02;5.53;;;3.08;;
77226;SDS011;66234;47.642;19.144;2023-08-12T17:29:05;6.13;;;3.30;;
77226;SDS011;66234;47.642;19.144;2023-08-12T17:32:07;4.97;;;3.00;;
77226;SDS011;66234;47.642;19.144;2023-08-12T17:35:10;11.07;;;3.15;;
77226;SDS011;66234;47.642;19.144;2023-08-12T17:38:12;4.80;;;3.13;;
77226;SDS011;66234;47.642;19.144;2023-08-12T17:41:15;4.50;;;2.95;;
77226;SDS011;66234;47.642;19.144;2023-08-12T17:44:17;6.20;;;3.05;;
77226;SDS011;66234;47.642;19.144;2023-08-12T17:47:20;7.03;;;4.43;;
77226;SDS011;66234;47.642;19.144;2023-08-12T17:50:23;5.30;;;3.70;;
77226;SDS011;66234;47.642;19.144;2023-08-12T17:53:26;7.55;;;4.00;;
77226;SDS011;66234;47.642;19.144;2023-08-12T17:56:29;10.02;;;3.60;;
77226;SDS011;66234;47.642;19.144;2023-08-12T17:59:31;6.75;;;3.65;;
77226;SDS011;66234;47.642;19.144;2023-08-12T18:02:35;4.23;;;3.33;;
77226;SDS011;66234;47.642;19.144;2023-08-12T18:05:38;5.03;;;2.85;;
77226;SDS011;66234;47.642;19.144;2023-08-12T18:08:40;4.78;;;3.03;;
77226;SDS011;66234;47.642;19.144;2023-08-12T18:11:43;4.32;;;3.17;;
77226;SDS011;66234;47.642;19.144;2023-08-12T18:14:45;5.43;;;3.08;;